Time;durP1;ratioP1;P1;durP2;ratioP2;P2;SDS_P1;SDS_P2;PMS_P1;PMS_P2;Temp;Humidity;BMP_temperature;BMP_pressure;BME280_temperature;BME280_humidity;BME280_pressure;Samples;Min_cycle;Max_cycle;Signal;HPM_P1;HPM_P2
2021/12/17 00:07:09;;;;;;;16.97;12.10;;;5.30;73.80;;;;;;4981673;28;20084;-79
2021/12/17 00:09:36;;;;;;;18.37;12.63;;;5.30;73.80;;;;;;4956501;28;20027;-78
2021/12/17 00:12:03;;;;;;;18.63;12.50;;;5.20;73.70;;;;;;4978079;28;20497;-78
2021/12/17 00:14:36;;;;;;;15.97;11.23;;;5.20;73.80;;;;;;4979282;28;20029;-78
2021/12/17 00:17:04;;;;;;;;;;;5.20;73.90;;;;;;4981296;28;20105;-79
2021/12/17 00:49:39;;;;;;;13.80;10.10;;;5.30;74.10;;;;;;4983600;28;20033;-79
2021/12/17 00:52:05;;;;;;;13.30;9.63;;;5.30;73.80;;;;;;4965963;28;20113;-79
2021/12/17 00:54:38;;;;;;;12.77;9.53;;;5.30;73.90;;;;;;4964133;28;20027;-79
2021/12/17 00:57:18;;;;;;;12.90;9.13;;;5.30;73.90;;;;;;4961317;28;20053;-80
2021/12/17 00:59:47;;;;;;;13.03;8.67;;;5.30;73.80;;;;;;4973304;28;20100;-79
2021/12/17 01:02:16;;;;;;;13.13;8.53;;;5.30;73.80;;;;;;4965436;28;20533;-79
2021/12/17 01:04:49;;;;;;;13.17;8.90;;;5.30;73.80;;;;;;4966051;28;20146;-79
2021/12/17 01:07:16;;;;;;;14.17;8.67;;;5.30;73.80;;;;;;4986340;28;20089;-79
2021/12/17 01:09:42;;;;;;;11.60;8.87;;;5.40;73.80;;;;;;4966278;28;20022;-79
2021/12/17 01:12:09;;;;;;;12.23;8.30;;;5.40;73.90;;;;;;4961944;28;20034;-79
2021/12/17 01:14:35;;;;;;;10.83;8.17;;;5.40;73.80;;;;;;4964210;28;20022;-79
2021/12/17 01:17:03;;;;;;;12.90;9.20;;;5.40;73.70;;;;;;4980240;28;20043;-79
2021/12/17 01:19:56;;;;;;;13.33;8.40;;;5.30;73.40;;;;;;4987622;28;20023;-79
2021/12/17 01:25:08;;;;;;;13.00;8.20;;;5.30;73.60;;;;;;4991293;28;20383;-79
2021/12/17 01:35:54;;;;;;;14.47;9.83;;;5.30;73.60;;;;;;4990463;28;20042;-79
2021/12/17 01:43:35;;;;;;;15.17;11.07;;;5.40;73.70;;;;;;4972682;28;20030;-79
2021/12/17 01:46:03;;;;;;;;;;;5.40;73.60;;;;;;4987140;28;20066;-79
2021/12/17 01:48:37;;;;;;;15.73;10.47;;;5.40;73.60;;;;;;4967829;28;19948;-79
2021/12/17 01:56:56;;;;;;;19.30;13.73;;;5.40;73.50;;;;;;4981990;28;20069;-79
2021/12/17 01:59:27;;;;;;;20.23;13.07;;;5.40;73.60;;;;;;4960557;28;20077;-79
2021/12/17 02:02:00;;;;;;;14.57;9.80;;;5.40;73.60;;;;;;4962036;28;20053;-79
2021/12/17 02:04:27;;;;;;;14.70;8.90;;;5.40;73.60;;;;;;4959316;28;20492;-79
2021/12/17 02:06:52;;;;;;;12.00;8.33;;;5.40;73.70;;;;;;4966212;28;20479;-79
2021/12/17 02:19:48;;;;;;;12.87;8.30;;;5.60;73.60;;;;;;4976935;28;20391;-79
2021/12/17 02:32:27;;;;;;;24.83;15.27;;;5.50;73.70;;;;;;4983166;28;20058;-79
2021/12/17 02:35:12;;;;;;;25.90;14.37;;;5.50;73.80;;;;;;4983044;28;20026;-79
2021/12/17 02:37:41;;;;;;;23.10;16.47;;;5.40;73.90;;;;;;4987096;28;20062;-79
2021/12/17 02:42:20;;;;;;;22.40;16.27;;;5.50;73.90;;;;;;4961695;28;20026;-79
2021/12/17 02:45:32;;;;;;;26.70;16.50;;;5.40;73.90;;;;;;4986788;28;20490;-79
2021/12/17 02:48:20;;;;;;;21.83;14.60;;;5.40;74.10;;;;;;4967393;28;20053;-79
2021/12/17 02:50:52;;;;;;;22.13;14.43;;;5.40;74.10;;;;;;4988119;28;20535;-79
2021/12/17 02:53:19;;;;;;;20.85;14.35;;;5.30;74.10;;;;;;4962188;28;20038;-79
2021/12/17 02:55:56;;;;;;;20.27;15.13;;;5.30;74.30;;;;;;4977795;28;20121;-79
2021/12/17 02:58:25;;;;;;;21.30;14.90;;;5.30;74.40;;;;;;4959576;28;20053;-79
2021/12/17 03:00:51;;;;;;;18.27;13.67;;;5.30;74.50;;;;;;4977626;28;20094;-79
2021/12/17 03:03:20;;;;;;;21.20;15.03;;;5.40;74.50;;;;;;4988911;28;20493;-80
2021/12/17 03:05:48;;;;;;;22.03;14.67;;;5.30;74.50;;;;;;4984211;28;20090;-79
2021/12/17 03:08:16;;;;;;;21.07;14.53;;;5.40;74.60;;;;;;4973065;28;20018;-79
2021/12/17 03:10:44;;;;;;;22.60;15.40;;;5.40;74.40;;;;;;4966370;28;20017;-79
2021/12/17 03:13:11;;;;;;;21.50;15.07;;;5.40;74.40;;;;;;4990851;28;20022;-79
2021/12/17 03:25:53;;;;;;;16.33;12.73;;;5.50;74.10;;;;;;4984230;28;20081;-79
2021/12/17 03:28:19;;;;;;;17.67;12.53;;;5.50;74.20;;;;;;4962035;28;20066;-79
2021/12/17 03:30:46;;;;;;;18.17;12.60;;;5.50;74.20;;;;;;4967739;28;20035;-79
2021/12/17 03:33:12;;;;;;;19.60;13.40;;;5.50;74.80;;;;;;4983898;28;20030;-79
2021/12/17 03:35:38;;;;;;;17.30;12.43;;;5.50;74.20;;;;;;4981411;28;20061;-79
2021/12/17 03:38:06;;;;;;;18.67;12.10;;;5.50;74.10;;;;;;4967087;28;20031;-79
2021/12/17 03:40:33;;;;;;;16.90;12.50;;;5.50;74.10;;;;;;4975329;28;20121;-79
2021/12/17 03:43:10;;;;;;;18.47;12.30;;;5.50;74.20;;;;;;4985480;28;20033;-79
2021/12/17 03:45:35;;;;;;;17.77;12.90;;;5.40;74.30;;;;;;4962027;28;20077;-79
2021/12/17 03:48:01;;;;;;;16.53;12.07;;;5.40;74.20;;;;;;4978563;28;20023;-79
2021/12/17 03:50:27;;;;;;;16.33;11.67;;;5.30;74.20;;;;;;4966255;28;20093;-79
2021/12/17 03:52:53;;;;;;;13.63;10.80;;;5.30;74.20;;;;;;4990554;28;20116;-79
2021/12/17 03:55:18;;;;;;;15.60;11.93;;;5.20;74.00;;;;;;4968648;28;20030;-79
2021/12/17 03:57:45;;;;;;;16.70;11.43;;;5.20;74.40;;;;;;4988985;28;20042;-79
2021/12/17 04:00:12;;;;;;;16.13;11.60;;;5.30;74.30;;;;;;4985083;28;20041;-79
2021/12/17 04:02:38;;;;;;;16.73;13.40;;;5.30;74.20;;;;;;4988735;28;20034;-79
2021/12/17 04:05:05;;;;;;;14.70;10.87;;;5.30;74.20;;;;;;4965452;28;20030;-79
2021/12/17 04:07:30;;;;;;;15.13;11.10;;;5.30;74.30;;;;;;4987212;28;20101;-79
2021/12/17 04:09:56;;;;;;;13.57;10.47;;;5.30;74.30;;;;;;4988279;28;20573;-79
2021/12/17 04:12:34;;;;;;;18.07;11.97;;;5.30;74.30;;;;;;4979719;28;20121;-79
2021/12/17 04:15:01;;;;;;;16.27;12.20;;;5.40;74.20;;;;;;4978636;28;20049;-79
2021/12/17 04:17:26;;;;;;;19.30;13.60;;;5.40;74.20;;;;;;4965228;28;20026;-80
2021/12/17 04:19:52;;;;;;;14.73;11.47;;;5.40;74.10;;;;;;4986560;28;20565;-79
2021/12/17 04:22:18;;;;;;;16.07;12.13;;;5.40;74.10;;;;;;4971324;28;20038;-79
2021/12/17 04:24:44;;;;;;;15.43;11.90;;;5.40;74.00;;;;;;4967892;28;20474;-79
2021/12/17 04:27:10;;;;;;;18.20;12.43;;;5.40;74.00;;;;;;4985134;28;20034;-80
2021/12/17 04:29:41;;;;;;;14.63;10.97;;;5.40;74.00;;;;;;4985621;28;20088;-79
2021/12/17 04:32:07;;;;;;;18.03;13.40;;;5.40;74.20;;;;;;4963793;28;20022;-79
2021/12/17 04:34:33;;;;;;;18.53;13.70;;;5.30;74.10;;;;;;4964484;28;20042;-79
2021/12/17 04:36:59;;;;;;;16.30;12.73;;;5.40;74.10;;;;;;4968014;28;20038;-79
2021/12/17 04:39:26;;;;;;;17.23;13.23;;;5.40;74.00;;;;;;4986425;28;20569;-79
2021/12/17 04:42:03;;;;;;;21.80;13.47;;;5.40;73.80;;;;;;4986473;28;20027;-79
2021/12/17 04:44:33;;;;;;;17.57;12.97;;;5.40;73.80;;;;;;4965018;28;20121;-79
2021/12/17 04:57:54;;;;;;;18.13;13.73;;;5.50;73.40;;;;;;4986119;28;20149;-79
2021/12/17 05:00:26;;;;;;;16.83;12.97;;;5.50;73.50;;;;;;4984017;28;20500;-79
2021/12/17 05:02:55;;;;;;;19.65;13.45;;;5.50;73.20;;;;;;4981872;28;20042;-79
2021/12/17 05:05:26;;;;;;;17.33;13.70;;;5.50;72.90;;;;;;4966184;28;20089;-79
2021/12/17 05:08:00;;;;;;;19.70;15.00;;;5.40;72.90;;;;;;4967550;28;20027;-79
2021/12/17 05:18:30;;;;;;;19.17;14.07;;;5.30;72.70;;;;;;4982575;28;20061;-79
2021/12/17 05:21:02;;;;;;;17.23;13.37;;;5.30;72.70;;;;;;4973652;28;20034;-79
2021/12/17 05:23:32;;;;;;;16.17;12.70;;;5.30;72.90;;;;;;4985997;28;20030;-79
2021/12/17 05:26:00;;;;;;;17.30;12.93;;;5.30;72.70;;;;;;4989089;28;20410;-79
2021/12/17 05:28:26;;;;;;;17.80;12.50;;;5.30;72.60;;;;;;4967448;28;20029;-79
2021/12/17 05:30:53;;;;;;;18.90;12.03;;;5.30;72.80;;;;;;4967751;28;20035;-79
2021/12/17 05:33:20;;;;;;;17.23;13.07;;;5.30;72.90;;;;;;4971317;28;20030;-79
2021/12/17 05:35:47;;;;;;;17.13;12.57;;;5.40;72.50;;;;;;4968184;28;20162;-79
2021/12/17 05:38:15;;;;;;;16.43;12.30;;;5.30;72.30;;;;;;4970800;28;20042;-79
2021/12/17 05:40:42;;;;;;;18.03;14.10;;;5.20;72.30;;;;;;4985302;28;20035;-79
2021/12/17 05:43:08;;;;;;;15.67;12.60;;;5.20;72.00;;;;;;4982875;28;20052;-79
2021/12/17 05:45:47;;;;;;;16.23;11.93;;;5.20;72.30;;;;;;4988646;28;20057;-79
2021/12/17 05:48:14;;;;;;;17.00;13.00;;;5.20;72.10;;;;;;4986840;28;20030;-79
2021/12/17 05:50:42;;;;;;;16.73;11.97;;;5.20;72.20;;;;;;4984585;28;20462;-79
2021/12/17 05:53:08;;;;;;;17.20;13.20;;;5.10;72.30;;;;;;4966112;28;20043;-79
2021/12/17 05:55:35;;;;;;;14.67;11.90;;;5.20;72.50;;;;;;4964633;28;20033;-80
2021/12/17 05:58:01;;;;;;;16.33;12.43;;;5.20;72.20;;;;;;4960515;28;20054;-79
2021/12/17 06:00:30;;;;;;;15.83;12.90;;;5.30;71.90;;;;;;4963225;28;20034;-80
2021/12/17 06:02:57;;;;;;;17.00;12.30;;;5.20;71.50;;;;;;4962146;28;20125;-80
2021/12/17 06:05:23;;;;;;;19.13;14.90;;;5.20;71.70;;;;;;4961356;28;20041;-78
2021/12/17 06:07:49;;;;;;;21.17;15.30;;;5.20;71.30;;;;;;4983294;28;20031;-78
2021/12/17 06:10:15;;;;;;;17.43;13.60;;;5.10;71.30;;;;;;4983302;28;20031;-77
2021/12/17 06:12:41;;;;;;;17.07;12.83;;;5.10;71.20;;;;;;4965742;28;20086;-80
2021/12/17 06:15:10;;;;;;;16.77;13.40;;;5.10;71.30;;;;;;4982664;28;20046;-78
2021/12/17 06:17:36;;;;;;;17.37;13.83;;;5.10;71.50;;;;;;4963369;28;20122;-77
2021/12/17 06:20:04;;;;;;;16.83;13.40;;;5.20;71.40;;;;;;4967435;28;20489;-78
2021/12/17 06:22:30;;;;;;;15.47;12.27;;;5.10;71.30;;;;;;4985337;28;20043;-78
2021/12/17 06:24:55;;;;;;;18.43;13.57;;;5.10;71.10;;;;;;4968989;28;20350;-78
2021/12/17 06:27:23;;;;;;;25.43;18.13;;;5.10;71.10;;;;;;4983144;28;20034;-78
2021/12/17 06:29:49;;;;;;;19.43;14.70;;;5.00;70.90;;;;;;4984510;28;20085;-78
2021/12/17 06:32:16;;;;;;;21.90;15.70;;;5.10;71.10;;;;;;4983615;28;20517;-78
2021/12/17 06:34:42;;;;;;;16.47;12.27;;;5.00;70.90;;;;;;4967376;28;20026;-78
2021/12/17 06:37:08;;;;;;;21.37;16.13;;;5.00;71.00;;;;;;4966311;28;20041;-78
2021/12/17 06:39:35;;;;;;;24.00;16.97;;;5.10;70.80;;;;;;4967219;28;20027;-78
2021/12/17 06:42:01;;;;;;;22.60;16.80;;;5.00;70.90;;;;;;4981627;28;20485;-78
2021/12/17 06:44:27;;;;;;;26.33;18.43;;;5.00;70.80;;;;;;4965646;28;20038;-78
2021/12/17 07:10:53;;;;;;;21.27;15.90;;;5.00;71.00;;;;;;4975434;28;20034;-78
2021/12/17 07:32:30;;;;;;;19.50;14.67;;;5.10;70.70;;;;;;4984627;28;20053;-78
2021/12/17 07:39:56;;;;;;;18.13;12.13;;;5.20;70.70;;;;;;4982426;28;20023;-78
2021/12/17 07:42:23;;;;;;;17.20;11.80;;;5.20;70.90;;;;;;4980410;28;20498;-79
2021/12/17 07:44:49;;;;;;;18.47;14.13;;;5.30;71.00;;;;;;4959489;28;20042;-79
2021/12/17 07:47:14;;;;;;;19.70;14.30;;;5.30;70.50;;;;;;4981503;28;20368;-78
2021/12/17 07:49:40;;;;;;;17.80;13.20;;;5.30;71.00;;;;;;4980748;28;20027;-78
2021/12/17 07:52:06;;;;;;;20.63;15.20;;;5.30;71.10;;;;;;4975673;28;20426;-78
2021/12/17 07:54:32;;;;;;;20.10;14.63;;;5.30;71.00;;;;;;4963285;28;20054;-78
2021/12/17 07:56:57;;;;;;;24.50;18.80;;;5.30;71.10;;;;;;4986381;28;20059;-79
2021/12/17 07:59:25;;;;;;;25.57;18.70;;;5.30;70.70;;;;;;4964779;28;20526;-79
2021/12/17 08:01:50;;;;;;;24.70;18.77;;;5.20;70.60;;;;;;4982284;28;20033;-79
2021/12/17 08:04:17;;;;;;;24.83;19.20;;;5.20;70.60;;;;;;4984007;28;20496;-78
2021/12/17 08:06:43;;;;;;;26.63;18.47;;;5.20;70.80;;;;;;4975342;28;20029;-78
2021/12/17 08:09:08;;;;;;;23.90;17.93;;;5.20;71.00;;;;;;4988099;28;20037;-79
2021/12/17 08:11:38;;;;;;;22.23;17.63;;;5.30;70.80;;;;;;4982755;28;20758;-79
2021/12/17 08:14:09;;;;;;;25.00;18.07;;;5.20;70.30;;;;;;4964654;28;20034;-79
2021/12/17 08:16:46;;;;;;;23.23;17.37;;;5.30;70.70;;;;;;4982062;28;20027;-79
2021/12/17 08:24:48;;;;;;;25.13;17.87;;;5.20;70.40;;;;;;4988948;28;20042;-79
2021/12/17 08:27:27;;;;;;;23.90;17.13;;;5.20;69.90;;;;;;4994043;28;20427;-79
2021/12/17 08:32:39;;;;;;;20.47;16.57;;;5.10;70.10;;;;;;4982251;28;20042;-78
2021/12/17 08:35:06;;;;;;;22.20;16.57;;;5.20;70.20;;;;;;4964993;28;20519;-79
2021/12/17 08:37:32;;;;;;;20.70;14.63;;;5.20;70.20;;;;;;4980635;28;20720;-79
2021/12/17 08:39:58;;;;;;;20.67;15.27;;;5.20;69.80;;;;;;4984699;28;20081;-79
2021/12/17 08:42:24;;;;;;;20.33;15.17;;;5.10;69.80;;;;;;4978890;28;20054;-79
2021/12/17 08:44:50;;;;;;;21.67;16.40;;;5.10;69.80;;;;;;4961315;28;20057;-79
2021/12/17 08:47:15;;;;;;;27.07;17.03;;;5.10;69.80;;;;;;4981341;28;20026;-79
2021/12/17 08:49:43;;;;;;;19.90;15.03;;;5.10;70.00;;;;;;4961199;28;20527;-79
2021/12/17 08:52:09;;;;;;;21.03;15.10;;;5.10;70.00;;;;;;4971481;28;20858;-79
2021/12/17 08:54:35;;;;;;;18.57;14.83;;;5.10;69.70;;;;;;4987591;28;20066;-79
2021/12/17 08:57:02;;;;;;;20.87;15.43;;;5.10;70.20;;;;;;4969344;28;20445;-78
2021/12/17 08:59:29;;;;;;;22.30;16.43;;;5.20;70.00;;;;;;4969842;28;20039;-79
2021/12/17 09:01:55;;;;;;;19.97;15.20;;;5.10;69.50;;;;;;4983041;28;20026;-79
2021/12/17 09:04:22;;;;;;;20.30;14.37;;;5.10;69.70;;;;;;4957619;28;20031;-79
2021/12/17 09:06:49;;;;;;;18.97;14.43;;;5.10;69.70;;;;;;4964969;28;20412;-79
2021/12/17 09:09:19;;;;;;;21.60;15.83;;;5.10;69.50;;;;;;4963814;28;20035;-79
2021/12/17 09:11:45;;;;;;;20.00;15.60;;;5.10;69.50;;;;;;4970064;28;20038;-79
2021/12/17 09:14:11;;;;;;;22.63;16.20;;;5.10;69.70;;;;;;4980151;28;20043;-79
2021/12/17 09:16:37;;;;;;;21.87;16.03;;;5.10;69.50;;;;;;4982347;28;20041;-79
2021/12/17 09:19:04;;;;;;;24.57;17.47;;;5.10;69.50;;;;;;4962127;28;20035;-79
2021/12/17 09:21:30;;;;;;;22.93;17.10;;;5.10;69.50;;;;;;4981183;28;20026;-79
2021/12/17 09:23:56;;;;;;;22.50;16.87;;;5.10;69.50;;;;;;4981449;28;20532;-79
2021/12/17 09:26:22;;;;;;;22.00;16.70;;;5.10;69.60;;;;;;4973737;28;20097;-79
2021/12/17 09:28:49;;;;;;;22.20;14.93;;;5.10;69.40;;;;;;4975841;28;20038;-79
2021/12/17 09:31:15;;;;;;;18.77;15.07;;;5.10;69.60;;;;;;4967514;28;20026;-79
2021/12/17 09:33:44;;;;;;;21.97;15.43;;;5.20;69.10;;;;;;4961120;28;20088;-79
2021/12/17 09:36:10;;;;;;;21.33;16.27;;;5.20;69.50;;;;;;4961409;28;20062;-79
2021/12/17 09:38:36;;;;;;;20.43;15.40;;;5.20;69.10;;;;;;4981315;28;20125;-79
2021/12/17 09:41:03;;;;;;;21.97;16.47;;;5.10;68.90;;;;;;4986602;28;20104;-79
2021/12/17 09:43:30;;;;;;;23.47;16.47;;;5.10;69.20;;;;;;4977610;28;20238;-79
2021/12/17 09:46:00;;;;;;;25.43;17.70;;;5.10;69.40;;;;;;4966796;28;20105;-79
2021/12/17 09:48:26;;;;;;;24.63;17.23;;;5.00;69.30;;;;;;4984693;28;20057;-79
2021/12/17 09:50:55;;;;;;;23.57;16.17;;;5.10;69.30;;;;;;4982839;28;20514;-79
2021/12/17 09:53:21;;;;;;;21.33;15.27;;;5.00;69.10;;;;;;4981976;28;20366;-79
2021/12/17 09:55:46;;;;;;;24.63;17.97;;;5.10;69.40;;;;;;4972022;28;20035;-79
2021/12/17 09:58:12;;;;;;;21.17;15.13;;;5.10;69.40;;;;;;4986880;28;20046;-79
2021/12/17 10:00:38;;;;;;;19.60;14.90;;;5.10;69.50;;;;;;4978124;28;20660;-78
2021/12/17 10:03:07;;;;;;;21.83;14.87;;;5.10;69.50;;;;;;4960795;28;20046;-79
2021/12/17 10:05:36;;;;;;;20.67;15.33;;;5.20;69.30;;;;;;4964342;28;20064;-79
2021/12/17 10:08:10;;;;;;;22.20;16.50;;;5.20;69.20;;;;;;4975199;28;20401;-79
2021/12/17 10:10:42;;;;;;;24.30;15.67;;;5.10;69.20;;;;;;4983604;28;20448;-79
2021/12/17 10:13:08;;;;;;;20.00;14.80;;;5.20;69.00;;;;;;4982797;28;20034;-79
2021/12/17 10:15:40;;;;;;;20.03;14.70;;;5.10;68.90;;;;;;4957217;28;20106;-79
2021/12/17 10:18:06;;;;;;;23.15;15.00;;;5.10;68.90;;;;;;4962423;28;20125;-79
2021/12/17 10:20:43;;;;;;;18.83;14.47;;;5.00;68.60;;;;;;4965116;28;20506;-79
2021/12/17 10:23:11;;;;;;;26.30;16.73;;;5.00;68.80;;;;;;4961214;28;20080;-79
2021/12/17 10:25:44;;;;;;;33.17;18.63;;;5.00;68.70;;;;;;4962951;28;20112;-79
2021/12/17 10:28:13;;;;;;;20.10;15.57;;;5.10;68.80;;;;;;4976625;28;20035;-79
2021/12/17 10:30:42;;;;;;;21.23;16.07;;;5.10;68.60;;;;;;4958449;28;20665;-79
2021/12/17 10:33:16;;;;;;;22.07;15.90;;;5.00;68.70;;;;;;4964628;28;20394;-79
2021/12/17 10:35:47;;;;;;;22.03;15.23;;;5.00;68.90;;;;;;4981579;28;20034;-79
2021/12/17 10:38:16;;;;;;;21.40;15.30;;;5.00;68.80;;;;;;4966669;28;20032;-79
2021/12/17 10:41:01;;;;;;;23.33;17.50;;;4.90;68.70;;;;;;4963337;28;20026;-79
2021/12/17 10:48:57;;;;;;;20.27;15.97;;;4.90;69.10;;;;;;4977411;28;20114;-79
2021/12/17 10:54:07;;;;;;;22.10;15.57;;;5.00;69.20;;;;;;4973653;28;20037;-79
2021/12/17 10:56:36;;;;;;;23.63;15.93;;;5.10;69.00;;;;;;4976406;28;20050;-79
2021/12/17 10:59:11;;;;;;;24.00;16.10;;;5.20;68.80;;;;;;4960957;28;20027;-79
2021/12/17 11:01:53;;;;;;;24.20;15.90;;;5.10;68.40;;;;;;4960126;28;20082;-79
2021/12/17 11:04:22;;;;;;;23.50;16.17;;;5.20;68.80;;;;;;4961906;28;20062;-79
2021/12/17 11:06:55;;;;;;;24.00;16.03;;;5.20;68.50;;;;;;4968018;28;20402;-79
2021/12/17 11:09:54;;;;;;;21.73;16.58;;;5.20;68.60;;;;;;4961784;28;20759;-79
2021/12/17 11:12:31;;;;;;;21.40;15.67;;;5.30;68.50;;;;;;4970108;28;20035;-79
2021/12/17 11:15:25;;;;;;;23.87;17.03;;;5.40;68.50;;;;;;4985319;28;20029;-79
2021/12/17 11:17:52;;;;;;;21.80;14.97;;;5.40;68.10;;;;;;4961598;28;20041;-79
2021/12/17 11:20:31;;;;;;;22.33;15.17;;;5.40;68.20;;;;;;4983419;28;20481;-79
2021/12/17 11:23:03;;;;;;;21.00;14.43;;;5.30;68.00;;;;;;4957066;28;20037;-79
2021/12/17 11:25:29;;;;;;;;;;;5.30;68.10;;;;;;4981627;28;20022;-81
2021/12/17 11:27:55;;;;;;;18.83;13.90;;;5.40;68.40;;;;;;4964668;28;20009;-81
2021/12/17 11:30:24;;;;;;;19.63;14.93;;;5.40;68.00;;;;;;4956831;28;20374;-79
2021/12/17 11:32:51;;;;;;;20.37;15.00;;;5.40;67.90;;;;;;4976901;28;20039;-79
2021/12/17 11:35:20;;;;;;;25.53;17.27;;;5.40;67.90;;;;;;4975221;28;20058;-79
2021/12/17 11:37:49;;;;;;;22.33;15.63;;;5.40;67.90;;;;;;4986590;28;20026;-79
2021/12/17 11:40:27;;;;;;;24.97;15.90;;;5.40;67.90;;;;;;4979576;28;20030;-79
2021/12/17 11:43:34;;;;;;;19.07;15.17;;;5.40;68.00;;;;;;4963055;28;20035;-79
2021/12/17 11:46:04;;;;;;;20.27;15.10;;;5.40;67.80;;;;;;4974390;28;20037;-79
2021/12/17 11:48:32;;;;;;;19.10;14.10;;;5.50;68.00;;;;;;4965203;28;20101;-79
2021/12/17 11:51:15;;;;;;;20.67;15.20;;;5.60;68.10;;;;;;4977326;28;20034;-79
2021/12/17 11:53:41;;;;;;;20.13;14.83;;;5.70;67.90;;;;;;4981103;28;20056;-79
2021/12/17 11:56:07;;;;;;;18.90;15.30;;;5.90;68.00;;;;;;4976863;28;20039;-79
2021/12/17 11:58:44;;;;;;;21.17;15.90;;;5.90;67.80;;;;;;4960014;28;20035;-79
2021/12/17 12:01:10;;;;;;;24.53;15.70;;;6.00;67.70;;;;;;4974498;28;20026;-78
2021/12/17 12:03:36;;;;;;;22.07;16.40;;;6.10;67.70;;;;;;4969433;28;20038;-79
2021/12/17 12:06:02;;;;;;;19.43;15.13;;;6.10;67.80;;;;;;4986711;28;20470;-79
2021/12/17 12:08:34;;;;;;;18.27;14.13;;;6.20;67.50;;;;;;4962865;28;20050;-79
2021/12/17 12:11:03;;;;;;;24.07;14.73;;;6.10;67.20;;;;;;4962410;28;20541;-79
2021/12/17 12:13:58;;;;;;;21.73;15.67;;;6.10;67.40;;;;;;4982339;28;20034;-79
2021/12/17 12:16:27;;;;;;;23.77;15.87;;;6.10;67.40;;;;;;4957531;28;20034;-79
2021/12/17 12:19:09;;;;;;;28.93;18.57;;;6.00;67.30;;;;;;4966106;28;20060;-80
2021/12/17 12:21:39;;;;;;;28.83;18.65;;;6.00;67.50;;;;;;4980586;28;20717;-79
2021/12/17 12:24:10;;;;;;;23.93;16.63;;;5.90;67.40;;;;;;4964450;28;20113;-79
2021/12/17 12:26:43;;;;;;;25.60;16.73;;;5.80;67.60;;;;;;4985904;28;20406;-79
2021/12/17 12:29:10;;;;;;;;;;;5.80;67.80;;;;;;4964490;28;20038;-79
2021/12/17 12:31:37;;;;;;;22.07;15.37;;;5.80;67.90;;;;;;4964706;28;19910;-79
2021/12/17 12:34:09;;;;;;;467.63;45.63;;;5.80;67.70;;;;;;4985892;28;20034;-79
2021/12/17 12:37:00;;;;;;;28.80;16.67;;;5.80;67.90;;;;;;4985225;28;20157;-79
2021/12/17 12:39:35;;;;;;;21.70;16.30;;;5.70;67.80;;;;;;4991465;28;20026;-79
2021/12/17 12:42:03;;;;;;;21.73;15.17;;;5.70;67.80;;;;;;4983594;28;20031;-79
2021/12/17 12:44:44;;;;;;;34.53;16.20;;;5.70;67.80;;;;;;4986199;28;20053;-79
2021/12/17 12:47:30;;;;;;;23.90;16.43;;;5.70;67.80;;;;;;4981142;28;20081;-79
2021/12/17 12:50:06;;;;;;;23.17;15.50;;;5.60;68.10;;;;;;4963779;28;20026;-79
2021/12/17 12:52:32;;;;;;;21.17;16.00;;;5.60;68.20;;;;;;4982466;28;20038;-79
2021/12/17 12:55:02;;;;;;;26.10;15.67;;;5.60;68.00;;;;;;4965191;28;20090;-80
2021/12/17 12:57:34;;;;;;;22.17;15.73;;;5.60;68.30;;;;;;4985195;28;20125;-79
2021/12/17 13:00:07;;;;;;;23.17;16.33;;;5.60;68.10;;;;;;4969198;28;20072;-79
2021/12/17 13:02:33;;;;;;;21.97;16.53;;;5.60;68.00;;;;;;4979613;28;20030;-79
2021/12/17 13:05:00;;;;;;;24.80;15.80;;;5.60;68.20;;;;;;4979386;28;20031;-79
2021/12/17 13:07:47;;;;;;;28.47;18.77;;;5.50;68.30;;;;;;4976797;28;20078;-79
2021/12/17 13:10:20;;;;;;;28.43;17.17;;;5.50;68.40;;;;;;4977910;28;20443;-79
2021/12/17 13:13:06;;;;;;;26.97;16.37;;;5.50;68.50;;;;;;4981558;28;20035;-79
2021/12/17 13:15:43;;;;;;;21.67;16.20;;;5.40;68.50;;;;;;4965555;28;20034;-79
2021/12/17 13:23:54;;;;;;;21.43;16.50;;;5.60;68.50;;;;;;4981328;28;20145;-79
2021/12/17 13:26:26;;;;;;;22.63;16.67;;;5.50;68.10;;;;;;4977976;28;20019;-79
2021/12/17 13:28:54;;;;;;;28.38;16.08;;;5.40;68.40;;;;;;4963348;28;20540;-79
2021/12/17 13:31:54;;;;;;;26.47;17.10;;;5.50;68.60;;;;;;4985938;28;20044;-79
2021/12/17 13:34:25;;;;;;;21.03;15.90;;;5.40;68.40;;;;;;4976316;28;20031;-79
2021/12/17 13:36:55;;;;;;;24.93;16.73;;;5.40;68.60;;;;;;4975386;28;20105;-79
2021/12/17 13:39:24;;;;;;;22.23;16.27;;;5.40;69.00;;;;;;4977053;28;20373;-79
2021/12/17 13:41:51;;;;;;;21.40;15.67;;;5.40;68.70;;;;;;4986923;28;20385;-79
2021/12/17 13:44:44;;;;;;;24.93;17.10;;;5.50;68.60;;;;;;4977941;28;20825;-79
2021/12/17 13:47:24;;;;;;;27.27;16.50;;;5.50;68.40;;;;;;4958953;28;20396;-79
2021/12/17 13:49:57;;;;;;;22.37;15.90;;;5.50;68.70;;;;;;4976082;28;20030;-79
2021/12/17 13:52:27;;;;;;;22.67;16.67;;;5.50;68.40;;;;;;4970918;28;20406;-79
2021/12/17 13:54:55;;;;;;;25.73;16.53;;;5.60;68.30;;;;;;4962852;28;20093;-79
2021/12/17 13:57:24;;;;;;;22.00;16.73;;;5.50;68.30;;;;;;4978897;28;20054;-79
2021/12/17 13:59:51;;;;;;;20.50;14.97;;;5.50;68.30;;;;;;4961898;28;20038;-79
2021/12/17 14:02:22;;;;;;;24.97;16.37;;;5.50;68.30;;;;;;4983678;28;20035;-79
2021/12/17 14:05:01;;;;;;;24.33;16.40;;;5.50;68.20;;;;;;4979099;28;20621;-79
2021/12/17 14:07:29;;;;;;;23.23;15.83;;;5.50;68.20;;;;;;4964488;28;20026;-78
2021/12/17 14:10:02;;;;;;;22.07;16.17;;;5.60;68.30;;;;;;4986689;28;20034;-79
2021/12/17 14:12:32;;;;;;;23.83;16.70;;;5.50;68.20;;;;;;4985588;28;20034;-79
2021/12/17 14:15:20;;;;;;;22.63;15.80;;;5.60;68.30;;;;;;4986767;28;20502;-79
2021/12/17 14:17:58;;;;;;;21.93;15.57;;;5.60;68.20;;;;;;4983469;28;20056;-79
2021/12/17 14:20:26;;;;;;;21.23;14.77;;;5.60;68.30;;;;;;4968581;28;20122;-79
2021/12/17 14:22:55;;;;;;;21.47;15.07;;;5.60;68.30;;;;;;4965953;28;20061;-79
2021/12/17 14:25:42;;;;;;;19.27;15.63;;;5.70;68.20;;;;;;4966499;28;20034;-79
2021/12/17 14:28:27;;;;;;;20.50;14.60;;;5.70;68.00;;;;;;4979196;28;20037;-79
2021/12/17 14:31:09;;;;;;;26.07;18.23;;;5.70;68.10;;;;;;4964692;28;20022;-79
2021/12/17 14:33:38;;;;;;;21.07;14.80;;;5.80;67.90;;;;;;4968561;28;20034;-79
2021/12/17 14:36:07;;;;;;;22.17;15.90;;;5.70;68.10;;;;;;4981903;28;20032;-80
2021/12/17 14:38:47;;;;;;;25.30;16.70;;;5.80;68.40;;;;;;4979803;28;20032;-81
2021/12/17 14:41:46;;;;;;;22.63;16.57;;;5.80;68.20;;;;;;4969168;28;20054;-82
2021/12/17 14:47:07;;;;;;;34.27;20.63;;;5.80;68.00;;;;;;4977656;28;20061;-79
2021/12/17 15:22:10;;;;;;;30.87;19.43;;;5.60;68.20;;;;;;4962014;28;20041;-80
2021/12/17 15:24:36;;;;;;;32.47;21.03;;;5.40;68.20;;;;;;4967474;28;20035;-80
2021/12/17 15:27:01;;;;;;;32.33;20.03;;;5.40;68.50;;;;;;4981066;28;20026;-80
2021/12/17 15:29:27;;;;;;;50.77;25.07;;;5.50;68.60;;;;;;4977706;28;20031;-80
2021/12/17 15:31:53;;;;;;;58.63;25.53;;;5.50;68.50;;;;;;4979210;28;20139;-80
2021/12/17 15:34:19;;;;;;;35.67;19.47;;;5.50;68.40;;;;;;4965873;28;20077;-80
2021/12/17 15:36:45;;;;;;;26.60;18.67;;;5.60;68.40;;;;;;4979999;28;20101;-80
2021/12/17 15:39:12;;;;;;;27.70;18.23;;;5.50;68.10;;;;;;4959957;28;20043;-80
2021/12/17 15:41:41;;;;;;;24.27;17.37;;;5.60;68.30;;;;;;4988802;28;20033;-80
2021/12/17 15:44:10;;;;;;;31.93;21.57;;;5.50;68.30;;;;;;4968121;28;20497;-81
2021/12/17 15:46:37;;;;;;;37.00;22.40;;;5.50;68.20;;;;;;4964684;28;20050;-80
2021/12/17 15:49:05;;;;;;;30.47;20.83;;;5.40;68.40;;;;;;4981053;28;20036;-80
2021/12/17 15:51:31;;;;;;;28.87;19.33;;;5.30;68.40;;;;;;4982494;28;20026;-80
2021/12/17 15:53:57;;;;;;;29.30;19.70;;;5.30;68.80;;;;;;4963594;28;20031;-80
2021/12/17 15:56:23;;;;;;;23.63;17.97;;;5.30;69.10;;;;;;4972727;28;20506;-80
2021/12/17 15:58:49;;;;;;;27.10;18.93;;;5.30;68.90;;;;;;4969845;28;20042;-80
2021/12/17 16:01:15;;;;;;;28.43;19.97;;;5.30;68.90;;;;;;4987011;28;20037;-80
2021/12/17 16:03:43;;;;;;;74.70;48.77;;;5.30;69.10;;;;;;4981774;28;20113;-80
2021/12/17 16:06:10;;;;;;;64.57;41.30;;;5.40;69.10;;;;;;4985401;28;20030;-80
2021/12/17 16:08:42;;;;;;;52.07;33.90;;;5.40;69.10;;;;;;4983422;28;20415;-80
2021/12/17 16:21:52;;;;;;;;;;;5.30;69.10;;;;;;4989391;28;20046;-80
2021/12/17 16:24:18;;;;;;;39.53;25.60;;;5.30;69.00;;;;;;4977722;28;20016;-80
2021/12/17 16:26:44;;;;;;;37.10;23.80;;;5.20;68.80;;;;;;4967565;28;20035;-80
2021/12/17 16:29:15;;;;;;;33.67;22.23;;;5.10;69.10;;;;;;4993499;28;20101;-80
2021/12/17 16:31:41;;;;;;;30.03;19.70;;;5.10;69.20;;;;;;4983086;28;20090;-80
2021/12/17 16:34:07;;;;;;;26.43;18.63;;;5.10;69.20;;;;;;4988778;28;20048;-80
2021/12/17 16:36:36;;;;;;;36.60;24.33;;;5.00;69.10;;;;;;4988447;28;20018;-80
2021/12/17 16:39:05;;;;;;;43.60;25.27;;;4.90;69.30;;;;;;4984990;28;20042;-80